sensor_id;sensor_type;location;lat;lon;timestamp;temperature;humidity
25342;DHT22;13298;48.792;9.154;2022-12-18T00:03:45;-7.90;99.90
25342;DHT22;13298;48.792;9.154;2022-12-18T00:06:12;-7.90;99.90
25342;DHT22;13298;48.792;9.154;2022-12-18T00:08:39;-8.00;99.90
25342;DHT22;13298;48.792;9.154;2022-12-18T00:11:06;-8.00;99.90
25342;DHT22;13298;48.792;9.154;2022-12-18T00:13:33;-8.00;99.90
25342;DHT22;13298;48.792;9.154;2022-12-18T00:16:06;-8.00;99.90
25342;DHT22;13298;48.792;9.154;2022-12-18T00:18:33;-8.00;99.90
25342;DHT22;13298;48.792;9.154;2022-12-18T00:20:59;-8.00;99.90
25342;DHT22;13298;48.792;9.154;2022-12-18T00:23:26;-8.10;99.90
25342;DHT22;13298;48.792;9.154;2022-12-18T00:25:52;-8.10;99.90
25342;DHT22;13298;48.792;9.154;2022-12-18T00:28:18;-8.10;99.90
25342;DHT22;13298;48.792;9.154;2022-12-18T00:30:43;-8.10;99.90
25342;DHT22;13298;48.792;9.154;2022-12-18T00:33:09;-8.10;99.90
25342;DHT22;13298;48.792;9.154;2022-12-18T00:35:34;-8.10;99.90
25342;DHT22;13298;48.792;9.154;2022-12-18T00:38:00;-8.10;99.90
25342;DHT22;13298;48.792;9.154;2022-12-18T00:40:26;-8.00;99.90
25342;DHT22;13298;48.792;9.154;2022-12-18T00:42:51;-8.10;99.90
25342;DHT22;13298;48.792;9.154;2022-12-18T00:45:26;-8.00;99.90
25342;DHT22;13298;48.792;9.154;2022-12-18T00:47:53;-8.10;99.90
25342;DHT22;13298;48.792;9.154;2022-12-18T00:50:20;-8.00;99.90
25342;DHT22;13298;48.792;9.154;2022-12-18T00:52:46;-8.10;99.90
25342;DHT22;13298;48.792;9.154;2022-12-18T00:55:11;-8.10;99.90
25342;DHT22;13298;48.792;9.154;2022-12-18T00:57:37;-8.10;99.90
25342;DHT22;13298;48.792;9.154;2022-12-18T01:00:04;-8.20;99.90
25342;DHT22;13298;48.792;9.154;2022-12-18T01:02:31;-8.10;99.90
25342;DHT22;13298;48.792;9.154;2022-12-18T01:04:56;-8.10;99.90
25342;DHT22;13298;48.792;9.154;2022-12-18T01:07:22;-8.10;99.90
25342;DHT22;13298;48.792;9.154;2022-12-18T01:09:47;-8.20;99.90
25342;DHT22;13298;48.792;9.154;2022-12-18T01:12:13;-8.20;99.90
25342;DHT22;13298;48.792;9.154;2022-12-18T01:14:39;-8.20;99.90
25342;DHT22;13298;48.792;9.154;2022-12-18T01:17:04;-8.20;99.90
25342;DHT22;13298;48.792;9.154;2022-12-18T01:19:30;-8.20;99.90
25342;DHT22;13298;48.792;9.154;2022-12-18T01:21:56;-8.20;99.90
25342;DHT22;13298;48.792;9.154;2022-12-18T01:24:21;-8.20;99.90
25342;DHT22;13298;48.792;9.154;2022-12-18T01:26:47;-8.20;99.90
25342;DHT22;13298;48.792;9.154;2022-12-18T01:29:13;-8.20;99.90
25342;DHT22;13298;48.792;9.154;2022-12-18T01:31:38;-8.20;99.90
25342;DHT22;13298;48.792;9.154;2022-12-18T01:34:04;-8.30;99.90
25342;DHT22;13298;48.792;9.154;2022-12-18T01:36:31;-8.30;99.90
25342;DHT22;13298;48.792;9.154;2022-12-18T01:39:02;-8.30;99.90
25342;DHT22;13298;48.792;9.154;2022-12-18T01:41:30;-8.30;99.90
25342;DHT22;13298;48.792;9.154;2022-12-18T01:47:17;-8.30;99.90
25342;DHT22;13298;48.792;9.154;2022-12-18T01:49:45;-8.30;99.90
25342;DHT22;13298;48.792;9.154;2022-12-18T01:52:11;-8.30;99.90
25342;DHT22;13298;48.792;9.154;2022-12-18T01:54:37;-8.30;99.90
25342;DHT22;13298;48.792;9.154;2022-12-18T01:57:02;-8.30;99.90
25342;DHT22;13298;48.792;9.154;2022-12-18T01:59:28;-8.30;99.90
25342;DHT22;13298;48.792;9.154;2022-12-18T02:01:56;-8.30;99.90
25342;DHT22;13298;48.792;9.154;2022-12-18T02:04:25;-8.30;99.90
25342;DHT22;13298;48.792;9.154;2022-12-18T02:07:13;-8.20;99.90
25342;DHT22;13298;48.792;9.154;2022-12-18T02:10:38;-8.20;99.90
25342;DHT22;13298;48.792;9.154;2022-12-18T02:13:12;-8.10;99.90
25342;DHT22;13298;48.792;9.154;2022-12-18T02:15:51;-8.10;99.90
25342;DHT22;13298;48.792;9.154;2022-12-18T02:18:28;-8.00;99.90
25342;DHT22;13298;48.792;9.154;2022-12-18T02:21:45;-7.90;99.90
25342;DHT22;13298;48.792;9.154;2022-12-18T02:26:59;-7.80;99.90
25342;DHT22;13298;48.792;9.154;2022-12-18T02:29:29;-7.70;99.90
25342;DHT22;13298;48.792;9.154;2022-12-18T02:31:59;-7.70;99.90
25342;DHT22;13298;48.792;9.154;2022-12-18T02:34:29;-7.70;99.90
25342;DHT22;13298;48.792;9.154;2022-12-18T02:36:56;-7.70;99.90
25342;DHT22;13298;48.792;9.154;2022-12-18T02:39:23;-7.70;99.90
25342;DHT22;13298;48.792;9.154;2022-12-18T02:41:50;-7.70;99.90
25342;DHT22;13298;48.792;9.154;2022-12-18T02:44:16;-7.70;99.90
25342;DHT22;13298;48.792;9.154;2022-12-18T02:46:43;-7.70;99.90
25342;DHT22;13298;48.792;9.154;2022-12-18T02:54:50;-7.70;99.90
25342;DHT22;13298;48.792;9.154;2022-12-18T02:59:49;-7.70;99.90
25342;DHT22;13298;48.792;9.154;2022-12-18T03:02:53;-7.60;99.90
25342;DHT22;13298;48.792;9.154;2022-12-18T03:05:58;-7.60;99.90
25342;DHT22;13298;48.792;9.154;2022-12-18T03:08:28;-7.60;99.90
25342;DHT22;13298;48.792;9.154;2022-12-18T03:13:28;-7.70;99.90
25342;DHT22;13298;48.792;9.154;2022-12-18T03:15:58;-7.70;99.90
25342;DHT22;13298;48.792;9.154;2022-12-18T03:18:26;-7.70;99.90
25342;DHT22;13298;48.792;9.154;2022-12-18T03:20:56;-7.70;99.90
25342;DHT22;13298;48.792;9.154;2022-12-18T03:23:24;-7.70;99.90
25342;DHT22;13298;48.792;9.154;2022-12-18T03:25:52;-7.80;99.90
25342;DHT22;13298;48.792;9.154;2022-12-18T03:28:21;-7.80;99.90
25342;DHT22;13298;48.792;9.154;2022-12-18T03:30:47;-7.80;99.90
25342;DHT22;13298;48.792;9.154;2022-12-18T03:33:20;-7.80;99.90
25342;DHT22;13298;48.792;9.154;2022-12-18T03:35:51;-7.90;99.90
25342;DHT22;13298;48.792;9.154;2022-12-18T03:38:16;-7.90;99.90
25342;DHT22;13298;48.792;9.154;2022-12-18T03:43:14;-7.90;99.90
25342;DHT22;13298;48.792;9.154;2022-12-18T03:45:54;-7.90;99.90
25342;DHT22;13298;48.792;9.154;2022-12-18T03:48:38;-8.00;99.90
25342;DHT22;13298;48.792;9.154;2022-12-18T03:54:15;-8.00;99.90
25342;DHT22;13298;48.792;9.154;2022-12-18T03:56:42;-8.00;99.90
25342;DHT22;13298;48.792;9.154;2022-12-18T03:59:11;-8.10;99.90
25342;DHT22;13298;48.792;9.154;2022-12-18T04:01:39;-8.10;99.90
25342;DHT22;13298;48.792;9.154;2022-12-18T04:04:06;-8.10;99.90
25342;DHT22;13298;48.792;9.154;2022-12-18T04:06:33;-8.10;99.90
25342;DHT22;13298;48.792;9.154;2022-12-18T04:08:59;-8.20;99.90
25342;DHT22;13298;48.792;9.154;2022-12-18T04:11:26;-8.20;99.90
25342;DHT22;13298;48.792;9.154;2022-12-18T04:13:56;-8.20;99.90
25342;DHT22;13298;48.792;9.154;2022-12-18T04:16:23;-8.20;99.90
25342;DHT22;13298;48.792;9.154;2022-12-18T04:18:49;-8.30;99.90
25342;DHT22;13298;48.792;9.154;2022-12-18T04:21:15;-8.40;99.90
25342;DHT22;13298;48.792;9.154;2022-12-18T04:23:41;-8.40;99.90
25342;DHT22;13298;48.792;9.154;2022-12-18T04:26:06;-8.40;99.90
25342;DHT22;13298;48.792;9.154;2022-12-18T04:28:32;-8.40;99.90
25342;DHT22;13298;48.792;9.154;2022-12-18T04:30:57;-8.40;99.90
25342;DHT22;13298;48.792;9.154;2022-12-18T04:33:23;-8.50;99.90
25342;DHT22;13298;48.792;9.154;2022-12-18T04:35:49;-8.50;99.90
25342;DHT22;13298;48.792;9.154;2022-12-18T04:38:14;-8.50;99.90
25342;DHT22;13298;48.792;9.154;2022-12-18T04:40:40;-8.50;99.90
25342;DHT22;13298;48.792;9.154;2022-12-18T04:43:06;-8.50;99.90
25342;DHT22;13298;48.792;9.154;2022-12-18T04:45:32;-8.50;99.90
25342;DHT22;13298;48.792;9.154;2022-12-18T04:47:58;-8.50;99.90
25342;DHT22;13298;48.792;9.154;2022-12-18T04:50:24;-8.40;99.90
25342;DHT22;13298;48.792;9.154;2022-12-18T04:52:50;-8.50;99.90
25342;DHT22;13298;48.792;9.154;2022-12-18T04:55:16;-8.50;99.90
25342;DHT22;13298;48.792;9.154;2022-12-18T04:57:41;-8.50;99.90
25342;DHT22;13298;48.792;9.154;2022-12-18T05:00:07;-8.60;99.90
25342;DHT22;13298;48.792;9.154;2022-12-18T05:02:33;-8.60;99.90
25342;DHT22;13298;48.792;9.154;2022-12-18T05:04:59;-8.60;99.90
25342;DHT22;13298;48.792;9.154;2022-12-18T05:07:24;-8.70;99.90
25342;DHT22;13298;48.792;9.154;2022-12-18T05:09:50;-8.70;99.90
25342;DHT22;13298;48.792;9.154;2022-12-18T05:12:16;-8.70;99.90
25342;DHT22;13298;48.792;9.154;2022-12-18T05:14:41;-8.70;99.90
25342;DHT22;13298;48.792;9.154;2022-12-18T05:17:07;-8.80;99.90
25342;DHT22;13298;48.792;9.154;2022-12-18T05:19:32;-8.80;99.90
25342;DHT22;13298;48.792;9.154;2022-12-18T05:21:58;-8.80;99.90
25342;DHT22;13298;48.792;9.154;2022-12-18T05:24:24;-8.80;99.90
25342;DHT22;13298;48.792;9.154;2022-12-18T05:26:49;-8.90;99.90
25342;DHT22;13298;48.792;9.154;2022-12-18T05:29:15;-8.90;99.90
25342;DHT22;13298;48.792;9.154;2022-12-18T05:31:40;-8.90;99.90
25342;DHT22;13298;48.792;9.154;2022-12-18T05:34:06;-8.80;99.90
25342;DHT22;13298;48.792;9.154;2022-12-18T05:36:32;-8.90;99.90
25342;DHT22;13298;48.792;9.154;2022-12-18T05:38:57;-8.90;99.90
25342;DHT22;13298;48.792;9.154;2022-12-18T05:41:23;-8.90;99.90
25342;DHT22;13298;48.792;9.154;2022-12-18T05:43:49;-8.90;99.90
25342;DHT22;13298;48.792;9.154;2022-12-18T05:46:15;-8.90;99.90
25342;DHT22;13298;48.792;9.154;2022-12-18T05:48:43;-8.90;99.90
25342;DHT22;13298;48.792;9.154;2022-12-18T05:51:10;-8.90;99.90
25342;DHT22;13298;48.792;9.154;2022-12-18T05:53:37;-8.90;99.90
25342;DHT22;13298;48.792;9.154;2022-12-18T05:56:05;-9.00;99.90
25342;DHT22;13298;48.792;9.154;2022-12-18T05:58:32;-9.00;99.90
25342;DHT22;13298;48.792;9.154;2022-12-18T06:01:05;-9.00;99.90
25342;DHT22;13298;48.792;9.154;2022-12-18T06:03:35;-9.00;99.90
25342;DHT22;13298;48.792;9.154;2022-12-18T06:06:01;-9.00;99.90
25342;DHT22;13298;48.792;9.154;2022-12-18T06:08:27;-9.10;99.90
25342;DHT22;13298;48.792;9.154;2022-12-18T06:10:53;-9.10;99.90
25342;DHT22;13298;48.792;9.154;2022-12-18T06:13:19;-9.10;99.90
25342;DHT22;13298;48.792;9.154;2022-12-18T06:15:45;-9.10;99.90
25342;DHT22;13298;48.792;9.154;2022-12-18T06:18:11;-9.10;99.90
25342;DHT22;13298;48.792;9.154;2022-12-18T06:20:36;-9.20;99.90
25342;DHT22;13298;48.792;9.154;2022-12-18T06:23:05;-9.20;99.90
25342;DHT22;13298;48.792;9.154;2022-12-18T06:25:31;-9.20;99.90
25342;DHT22;13298;48.792;9.154;2022-12-18T06:27:56;-9.30;99.90
25342;DHT22;13298;48.792;9.154;2022-12-18T06:30:22;-9.30;99.90
25342;DHT22;13298;48.792;9.154;2022-12-18T06:32:48;-9.30;99.90
25342;DHT22;13298;48.792;9.154;2022-12-18T06:35:14;-9.30;99.90
25342;DHT22;13298;48.792;9.154;2022-12-18T06:37:40;-9.30;99.90
25342;DHT22;13298;48.792;9.154;2022-12-18T06:40:06;-9.30;99.90
25342;DHT22;13298;48.792;9.154;2022-12-18T06:42:32;-9.30;99.90
25342;DHT22;13298;48.792;9.154;2022-12-18T06:44:57;-9.40;99.90
25342;DHT22;13298;48.792;9.154;2022-12-18T06:47:23;-9.40;99.90
25342;DHT22;13298;48.792;9.154;2022-12-18T06:49:49;-9.40;99.90
25342;DHT22;13298;48.792;9.154;2022-12-18T06:52:14;-9.40;99.90
25342;DHT22;13298;48.792;9.154;2022-12-18T06:54:40;-9.40;99.90
25342;DHT22;13298;48.792;9.154;2022-12-18T06:57:05;-9.40;99.90
25342;DHT22;13298;48.792;9.154;2022-12-18T06:59:31;-9.40;99.90
25342;DHT22;13298;48.792;9.154;2022-12-18T07:01:57;-9.40;99.90
25342;DHT22;13298;48.792;9.154;2022-12-18T07:04:26;-9.40;99.90
25342;DHT22;13298;48.792;9.154;2022-12-18T07:06:55;-9.40;99.90
25342;DHT22;13298;48.792;9.154;2022-12-18T07:09:20;-9.40;99.90
25342;DHT22;13298;48.792;9.154;2022-12-18T07:11:46;-9.30;99.90
25342;DHT22;13298;48.792;9.154;2022-12-18T07:14:12;-9.30;99.90
25342;DHT22;13298;48.792;9.154;2022-12-18T07:16:37;-9.30;99.90
25342;DHT22;13298;48.792;9.154;2022-12-18T07:19:03;-9.30;99.90
25342;DHT22;13298;48.792;9.154;2022-12-18T07:21:28;-9.30;99.90
25342;DHT22;13298;48.792;9.154;2022-12-18T07:23:54;-9.30;99.90
25342;DHT22;13298;48.792;9.154;2022-12-18T07:26:20;-9.30;99.90
25342;DHT22;13298;48.792;9.154;2022-12-18T07:28:46;-9.20;99.90
25342;DHT22;13298;48.792;9.154;2022-12-18T07:31:13;-9.20;99.90
25342;DHT22;13298;48.792;9.154;2022-12-18T07:33:40;-9.20;99.90
25342;DHT22;13298;48.792;9.154;2022-12-18T07:36:07;-9.20;99.90
25342;DHT22;13298;48.792;9.154;2022-12-18T07:38:34;-9.20;99.90
25342;DHT22;13298;48.792;9.154;2022-12-18T07:41:03;-9.10;99.90
25342;DHT22;13298;48.792;9.154;2022-12-18T07:43:30;-9.10;99.90
25342;DHT22;13298;48.792;9.154;2022-12-18T07:45:56;-9.00;99.90
25342;DHT22;13298;48.792;9.154;2022-12-18T07:48:21;-9.00;99.90
25342;DHT22;13298;48.792;9.154;2022-12-18T07:50:47;-9.00;99.90
25342;DHT22;13298;48.792;9.154;2022-12-18T07:53:13;-8.90;99.90
25342;DHT22;13298;48.792;9.154;2022-12-18T07:55:39;-8.90;99.90
25342;DHT22;13298;48.792;9.154;2022-12-18T07:58:08;-8.80;99.90
25342;DHT22;13298;48.792;9.154;2022-12-18T08:00:34;-8.80;99.90
25342;DHT22;13298;48.792;9.154;2022-12-18T08:02:59;-8.70;99.90
25342;DHT22;13298;48.792;9.154;2022-12-18T08:05:25;-8.70;99.90
25342;DHT22;13298;48.792;9.154;2022-12-18T08:07:51;-8.60;99.90
25342;DHT22;13298;48.792;9.154;2022-12-18T08:10:17;-8.50;99.90
25342;DHT22;13298;48.792;9.154;2022-12-18T08:12:43;-8.40;99.90
25342;DHT22;13298;48.792;9.154;2022-12-18T08:15:09;-8.30;99.90
25342;DHT22;13298;48.792;9.154;2022-12-18T08:17:35;-8.30;99.90
25342;DHT22;13298;48.792;9.154;2022-12-18T08:20:00;-8.20;99.90
25342;DHT22;13298;48.792;9.154;2022-12-18T08:22:26;-8.10;99.90
25342;DHT22;13298;48.792;9.154;2022-12-18T08:24:51;-8.10;99.90
25342;DHT22;13298;48.792;9.154;2022-12-18T08:27:17;-8.00;99.90
25342;DHT22;13298;48.792;9.154;2022-12-18T08:29:43;-8.00;99.90
25342;DHT22;13298;48.792;9.154;2022-12-18T08:32:08;-7.90;99.90
25342;DHT22;13298;48.792;9.154;2022-12-18T08:34:34;-7.80;99.90
25342;DHT22;13298;48.792;9.154;2022-12-18T08:36:59;-7.80;99.90
25342;DHT22;13298;48.792;9.154;2022-12-18T08:39:25;-7.70;99.90
25342;DHT22;13298;48.792;9.154;2022-12-18T08:41:51;-7.60;99.90
25342;DHT22;13298;48.792;9.154;2022-12-18T08:44:35;-7.60;99.90
25342;DHT22;13298;48.792;9.154;2022-12-18T08:47:04;-7.50;99.90
25342;DHT22;13298;48.792;9.154;2022-12-18T08:49:33;-7.50;99.90
25342;DHT22;13298;48.792;9.154;2022-12-18T08:51:59;-7.40;99.90
25342;DHT22;13298;48.792;9.154;2022-12-18T08:54:25;-7.30;99.90
25342;DHT22;13298;48.792;9.154;2022-12-18T08:56:51;-7.30;99.90
25342;DHT22;13298;48.792;9.154;2022-12-18T08:59:17;-7.20;99.90
25342;DHT22;13298;48.792;9.154;2022-12-18T09:01:43;-7.10;99.90
25342;DHT22;13298;48.792;9.154;2022-12-18T09:04:09;-7.10;99.90
25342;DHT22;13298;48.792;9.154;2022-12-18T09:06:35;-7.00;99.90
25342;DHT22;13298;48.792;9.154;2022-12-18T09:09:00;-6.90;99.90
25342;DHT22;13298;48.792;9.154;2022-12-18T09:11:27;-6.90;99.90
25342;DHT22;13298;48.792;9.154;2022-12-18T09:13:54;-6.80;99.90
25342;DHT22;13298;48.792;9.154;2022-12-18T09:16:20;-6.80;99.90
25342;DHT22;13298;48.792;9.154;2022-12-18T09:18:46;-6.70;99.90
25342;DHT22;13298;48.792;9.154;2022-12-18T09:21:16;-6.70;99.90
25342;DHT22;13298;48.792;9.154;2022-12-18T09:23:43;-6.60;99.90
25342;DHT22;13298;48.792;9.154;2022-12-18T09:26:09;-6.60;99.90
25342;DHT22;13298;48.792;9.154;2022-12-18T09:28:34;-6.50;99.90
25342;DHT22;13298;48.792;9.154;2022-12-18T09:31:03;-6.50;99.90
25342;DHT22;13298;48.792;9.154;2022-12-18T09:33:31;-6.30;99.90
25342;DHT22;13298;48.792;9.154;2022-12-18T09:35:56;-6.20;99.90
25342;DHT22;13298;48.792;9.154;2022-12-18T09:38:22;-6.10;99.90
25342;DHT22;13298;48.792;9.154;2022-12-18T09:40:50;-6.10;99.90
25342;DHT22;13298;48.792;9.154;2022-12-18T09:44:05;-6.00;99.90
25342;DHT22;13298;48.792;9.154;2022-12-18T09:46:14;-5.90;99.90
25342;DHT22;13298;48.792;9.154;2022-12-18T09:48:44;-5.90;99.90
25342;DHT22;13298;48.792;9.154;2022-12-18T09:51:14;-5.80;99.90
25342;DHT22;13298;48.792;9.154;2022-12-18T09:53:44;-5.70;99.90
25342;DHT22;13298;48.792;9.154;2022-12-18T09:56:15;-5.70;99.90
25342;DHT22;13298;48.792;9.154;2022-12-18T09:58:45;-5.60;99.90
25342;DHT22;13298;48.792;9.154;2022-12-18T10:01:14;-5.60;99.90
25342;DHT22;13298;48.792;9.154;2022-12-18T10:03:41;-5.50;99.90
25342;DHT22;13298;48.792;9.154;2022-12-18T10:06:14;-5.40;99.90
25342;DHT22;13298;48.792;9.154;2022-12-18T10:08:49;-5.30;99.90
25342;DHT22;13298;48.792;9.154;2022-12-18T10:14:10;-5.20;99.90
25342;DHT22;13298;48.792;9.154;2022-12-18T10:22:29;-5.00;99.90
25342;DHT22;13298;48.792;9.154;2022-12-18T10:28:10;-5.00;99.90
25342;DHT22;13298;48.792;9.154;2022-12-18T10:30:38;-4.90;99.90
25342;DHT22;13298;48.792;9.154;2022-12-18T10:33:05;-4.80;99.90
25342;DHT22;13298;48.792;9.154;2022-12-18T10:35:30;-4.70;99.90
25342;DHT22;13298;48.792;9.154;2022-12-18T10:38:06;-4.60;99.90
25342;DHT22;13298;48.792;9.154;2022-12-18T10:40:48;-4.60;99.90
25342;DHT22;13298;48.792;9.154;2022-12-18T10:43:23;-4.50;99.90
25342;DHT22;13298;48.792;9.154;2022-12-18T10:48:25;-4.30;99.90
25342;DHT22;13298;48.792;9.154;2022-12-18T10:50:52;-4.30;99.90
25342;DHT22;13298;48.792;9.154;2022-12-18T10:53:19;-4.20;99.90
25342;DHT22;13298;48.792;9.154;2022-12-18T10:55:49;-4.10;99.90
25342;DHT22;13298;48.792;9.154;2022-12-18T11:00:40;-4.00;99.90
25342;DHT22;13298;48.792;9.154;2022-12-18T11:03:28;-3.90;99.90
25342;DHT22;13298;48.792;9.154;2022-12-18T11:06:05;-3.80;99.90
25342;DHT22;13298;48.792;9.154;2022-12-18T11:08:42;-3.70;99.90
25342;DHT22;13298;48.792;9.154;2022-12-18T11:11:17;-3.60;99.90
25342;DHT22;13298;48.792;9.154;2022-12-18T11:16:44;-3.40;99.90
25342;DHT22;13298;48.792;9.154;2022-12-18T11:19:19;-3.40;99.90
25342;DHT22;13298;48.792;9.154;2022-12-18T11:21:57;-3.30;99.90
25342;DHT22;13298;48.792;9.154;2022-12-18T11:24:26;-3.30;99.90
25342;DHT22;13298;48.792;9.154;2022-12-18T11:26:54;-3.20;99.90
25342;DHT22;13298;48.792;9.154;2022-12-18T11:29:32;-3.10;99.90
25342;DHT22;13298;48.792;9.154;2022-12-18T11:34:58;-3.10;99.90
25342;DHT22;13298;48.792;9.154;2022-12-18T11:37:29;-3.10;99.90
25342;DHT22;13298;48.792;9.154;2022-12-18T11:45:23;-3.10;99.90
25342;DHT22;13298;48.792;9.154;2022-12-18T11:47:58;-3.10;99.90
25342;DHT22;13298;48.792;9.154;2022-12-18T11:50:38;-3.00;99.90
25342;DHT22;13298;48.792;9.154;2022-12-18T11:53:10;-3.00;99.90
25342;DHT22;13298;48.792;9.154;2022-12-18T11:55:39;-3.00;99.90
25342;DHT22;13298;48.792;9.154;2022-12-18T12:00:46;-2.90;99.90
25342;DHT22;13298;48.792;9.154;2022-12-18T12:17:32;-2.80;99.90
25342;DHT22;13298;48.792;9.154;2022-12-18T12:20:05;-2.80;99.90
25342;DHT22;13298;48.792;9.154;2022-12-18T12:25:28;-2.70;99.90
25342;DHT22;13298;48.792;9.154;2022-12-18T12:30:30;-2.50;99.90
25342;DHT22;13298;48.792;9.154;2022-12-18T12:33:17;-2.40;99.90
25342;DHT22;13298;48.792;9.154;2022-12-18T12:38:51;-2.30;99.90
25342;DHT22;13298;48.792;9.154;2022-12-18T12:41:26;-2.30;99.90
25342;DHT22;13298;48.792;9.154;2022-12-18T12:44:15;-2.20;99.90
25342;DHT22;13298;48.792;9.154;2022-12-18T12:46:44;-2.20;99.90
25342;DHT22;13298;48.792;9.154;2022-12-18T12:49:14;-2.10;99.90
25342;DHT22;13298;48.792;9.154;2022-12-18T12:51:49;-2.10;99.90
25342;DHT22;13298;48.792;9.154;2022-12-18T12:54:24;-2.00;99.90
25342;DHT22;13298;48.792;9.154;2022-12-18T12:56:56;-1.90;99.90
25342;DHT22;13298;48.792;9.154;2022-12-18T13:04:56;-1.80;99.90
25342;DHT22;13298;48.792;9.154;2022-12-18T13:07:32;-1.80;99.90
25342;DHT22;13298;48.792;9.154;2022-12-18T13:10:12;-1.70;99.90
25342;DHT22;13298;48.792;9.154;2022-12-18T13:25:49;-1.60;99.90
25342;DHT22;13298;48.792;9.154;2022-12-18T13:28:18;-1.60;99.90
25342;DHT22;13298;48.792;9.154;2022-12-18T13:30:48;-1.60;99.90
25342;DHT22;13298;48.792;9.154;2022-12-18T13:38:24;-1.40;99.90
25342;DHT22;13298;48.792;9.154;2022-12-18T13:41:01;-1.40;99.90
25342;DHT22;13298;48.792;9.154;2022-12-18T13:46:51;-1.40;99.90
25342;DHT22;13298;48.792;9.154;2022-12-18T13:51:39;-1.40;99.90
25342;DHT22;13298;48.792;9.154;2022-12-18T13:57:00;-1.40;99.90
25342;DHT22;13298;48.792;9.154;2022-12-18T13:59:36;-1.40;99.90
25342;DHT22;13298;48.792;9.154;2022-12-18T14:02:12;-1.40;99.90
25342;DHT22;13298;48.792;9.154;2022-12-18T14:04:39;-1.40;99.90
25342;DHT22;13298;48.792;9.154;2022-12-18T14:09:42;-1.60;99.90
25342;DHT22;13298;48.792;9.154;2022-12-18T14:17:50;-1.70;99.90
25342;DHT22;13298;48.792;9.154;2022-12-18T14:20:18;-1.80;99.90
25342;DHT22;13298;48.792;9.154;2022-12-18T14:22:45;-1.90;99.90
25342;DHT22;13298;48.792;9.154;2022-12-18T14:25:16;-1.90;99.90
25342;DHT22;13298;48.792;9.154;2022-12-18T14:27:46;-2.00;99.90
25342;DHT22;13298;48.792;9.154;2022-12-18T14:30:36;-2.00;99.90
25342;DHT22;13298;48.792;9.154;2022-12-18T14:33:08;-2.10;99.90
25342;DHT22;13298;48.792;9.154;2022-12-18T14:35:35;-2.10;99.90
25342;DHT22;13298;48.792;9.154;2022-12-18T14:38:22;-2.10;99.90
25342;DHT22;13298;48.792;9.154;2022-12-18T14:40:53;-2.20;99.90
25342;DHT22;13298;48.792;9.154;2022-12-18T14:43:21;-2.20;99.90
25342;DHT22;13298;48.792;9.154;2022-12-18T14:45:47;-2.30;99.90
25342;DHT22;13298;48.792;9.154;2022-12-18T14:48:21;-2.40;99.90
25342;DHT22;13298;48.792;9.154;2022-12-18T14:50:58;-2.40;99.90
25342;DHT22;13298;48.792;9.154;2022-12-18T14:53:36;-2.50;99.90
25342;DHT22;13298;48.792;9.154;2022-12-18T14:56:04;-2.60;99.90
25342;DHT22;13298;48.792;9.154;2022-12-18T14:58:39;-2.70;99.90
25342;DHT22;13298;48.792;9.154;2022-12-18T15:01:17;-2.70;99.90
25342;DHT22;13298;48.792;9.154;2022-12-18T15:03:43;-2.80;99.90
25342;DHT22;13298;48.792;9.154;2022-12-18T15:06:24;-2.90;99.90
25342;DHT22;13298;48.792;9.154;2022-12-18T15:08:52;-3.00;99.90
25342;DHT22;13298;48.792;9.154;2022-12-18T15:14:21;-3.10;99.90
25342;DHT22;13298;48.792;9.154;2022-12-18T15:16:50;-3.10;99.90
25342;DHT22;13298;48.792;9.154;2022-12-18T15:19:17;-3.20;99.90
25342;DHT22;13298;48.792;9.154;2022-12-18T15:21:44;-3.30;99.90
25342;DHT22;13298;48.792;9.154;2022-12-18T15:24:20;-3.30;99.90
25342;DHT22;13298;48.792;9.154;2022-12-18T15:26:49;-3.40;99.90
25342;DHT22;13298;48.792;9.154;2022-12-18T15:29:19;-3.40;99.90
25342;DHT22;13298;48.792;9.154;2022-12-18T15:34:30;-3.50;99.90
25342;DHT22;13298;48.792;9.154;2022-12-18T15:36:56;-3.50;99.90
25342;DHT22;13298;48.792;9.154;2022-12-18T15:39:21;-3.60;99.90
25342;DHT22;13298;48.792;9.154;2022-12-18T15:41:47;-3.60;99.90
25342;DHT22;13298;48.792;9.154;2022-12-18T15:44:31;-3.70;99.90
25342;DHT22;13298;48.792;9.154;2022-12-18T15:46:57;-3.80;99.90
25342;DHT22;13298;48.792;9.154;2022-12-18T15:49:23;-3.80;99.90
25342;DHT22;13298;48.792;9.154;2022-12-18T15:51:51;-3.90;99.90
25342;DHT22;13298;48.792;9.154;2022-12-18T15:54:18;-3.90;99.90
25342;DHT22;13298;48.792;9.154;2022-12-18T15:57:04;-3.90;99.90
25342;DHT22;13298;48.792;9.154;2022-12-18T15:59:48;-3.90;99.90
25342;DHT22;13298;48.792;9.154;2022-12-18T16:02:16;-4.00;99.90
25342;DHT22;13298;48.792;9.154;2022-12-18T16:04:42;-4.00;99.90
25342;DHT22;13298;48.792;9.154;2022-12-18T16:07:08;-4.00;99.90
25342;DHT22;13298;48.792;9.154;2022-12-18T16:09:34;-4.00;99.90
25342;DHT22;13298;48.792;9.154;2022-12-18T16:12:00;-4.10;99.90
25342;DHT22;13298;48.792;9.154;2022-12-18T16:14:27;-4.00;99.90
25342;DHT22;13298;48.792;9.154;2022-12-18T16:16:58;-4.10;99.90
25342;DHT22;13298;48.792;9.154;2022-12-18T16:19:25;-4.00;99.90
25342;DHT22;13298;48.792;9.154;2022-12-18T16:21:52;-4.00;99.90
25342;DHT22;13298;48.792;9.154;2022-12-18T16:24:30;-4.00;99.90
25342;DHT22;13298;48.792;9.154;2022-12-18T16:26:57;-4.00;99.90
25342;DHT22;13298;48.792;9.154;2022-12-18T16:29:24;-3.90;99.90
25342;DHT22;13298;48.792;9.154;2022-12-18T16:32:01;-4.00;99.90
25342;DHT22;13298;48.792;9.154;2022-12-18T16:34:27;-3.90;99.90
25342;DHT22;13298;48.792;9.154;2022-12-18T16:36:55;-3.90;99.90
25342;DHT22;13298;48.792;9.154;2022-12-18T16:39:22;-3.90;99.90
25342;DHT22;13298;48.792;9.154;2022-12-18T16:41:48;-3.90;99.90
25342;DHT22;13298;48.792;9.154;2022-12-18T16:44:13;-3.90;99.90
25342;DHT22;13298;48.792;9.154;2022-12-18T16:46:39;-3.90;99.90
25342;DHT22;13298;48.792;9.154;2022-12-18T16:49:08;-3.80;99.90
25342;DHT22;13298;48.792;9.154;2022-12-18T16:51:34;-3.80;99.90
25342;DHT22;13298;48.792;9.154;2022-12-18T16:53:59;-3.80;99.90
25342;DHT22;13298;48.792;9.154;2022-12-18T16:56:25;-3.70;99.90
25342;DHT22;13298;48.792;9.154;2022-12-18T16:58:52;-3.70;99.90
25342;DHT22;13298;48.792;9.154;2022-12-18T17:01:21;-3.70;99.90
25342;DHT22;13298;48.792;9.154;2022-12-18T17:03:51;-3.60;99.90
25342;DHT22;13298;48.792;9.154;2022-12-18T17:06:18;-3.60;99.90
25342;DHT22;13298;48.792;9.154;2022-12-18T17:08:44;-3.50;99.90
25342;DHT22;13298;48.792;9.154;2022-12-18T17:11:09;-3.50;99.90
25342;DHT22;13298;48.792;9.154;2022-12-18T17:13:35;-3.40;99.90
25342;DHT22;13298;48.792;9.154;2022-12-18T17:16:01;-3.40;99.90
25342;DHT22;13298;48.792;9.154;2022-12-18T17:18:30;-3.40;99.90
25342;DHT22;13298;48.792;9.154;2022-12-18T17:20:59;-3.30;99.90
25342;DHT22;13298;48.792;9.154;2022-12-18T17:23:26;-3.30;99.90
25342;DHT22;13298;48.792;9.154;2022-12-18T17:25:53;-3.30;99.90
25342;DHT22;13298;48.792;9.154;2022-12-18T17:28:20;-3.20;99.90
25342;DHT22;13298;48.792;9.154;2022-12-18T17:30:46;-3.20;99.90
25342;DHT22;13298;48.792;9.154;2022-12-18T17:33:11;-3.10;99.90
25342;DHT22;13298;48.792;9.154;2022-12-18T17:35:37;-3.10;99.90
25342;DHT22;13298;48.792;9.154;2022-12-18T17:38:03;-3.10;99.90
25342;DHT22;13298;48.792;9.154;2022-12-18T17:40:28;-3.00;99.90
25342;DHT22;13298;48.792;9.154;2022-12-18T17:42:57;-3.00;99.90
25342;DHT22;13298;48.792;9.154;2022-12-18T17:45:22;-3.00;99.90